sensor_id;sensor_type;location;lat;lon;timestamp;P1;durP1;ratioP1;P2;durP2;ratioP2
10967;SDS011;5536;49.602;10.980;2023-05-10T00:02:07;1.10;;;1.10;;
10967;SDS011;5536;49.602;10.980;2023-05-10T00:04:34;1.60;;;0.90;;
10967;SDS011;5536;49.602;10.980;2023-05-10T00:07:02;0.83;;;0.83;;
10967;SDS011;5536;49.602;10.980;2023-05-10T00:09:29;1.40;;;1.30;;
10967;SDS011;5536;49.602;10.980;2023-05-10T00:11:56;2.97;;;1.63;;
10967;SDS011;5536;49.602;10.980;2023-05-10T00:14:23;1.17;;;1.17;;
10967;SDS011;5536;49.602;10.980;2023-05-10T00:16:50;1.10;;;1.00;;
10967;SDS011;5536;49.602;10.980;2023-05-10T00:19:17;1.10;;;0.97;;
10967;SDS011;5536;49.602;10.980;2023-05-10T00:21:44;0.63;;;0.63;;
10967;SDS011;5536;49.602;10.980;2023-05-10T00:24:12;1.40;;;1.30;;
10967;SDS011;5536;49.602;10.980;2023-05-10T00:26:39;1.07;;;1.00;;
10967;SDS011;5536;49.602;10.980;2023-05-10T00:29:07;1.47;;;1.10;;
10967;SDS011;5536;49.602;10.980;2023-05-10T00:31:34;1.20;;;1.07;;
10967;SDS011;5536;49.602;10.980;2023-05-10T00:34:01;1.90;;;1.30;;
10967;SDS011;5536;49.602;10.980;2023-05-10T00:36:28;0.67;;;0.67;;
10967;SDS011;5536;49.602;10.980;2023-05-10T00:38:56;2.20;;;1.57;;
10967;SDS011;5536;49.602;10.980;2023-05-10T00:41:24;0.90;;;0.90;;
10967;SDS011;5536;49.602;10.980;2023-05-10T00:43:51;2.20;;;1.00;;
10967;SDS011;5536;49.602;10.980;2023-05-10T00:46:18;2.60;;;1.40;;
10967;SDS011;5536;49.602;10.980;2023-05-10T00:48:45;1.60;;;1.10;;
10967;SDS011;5536;49.602;10.980;2023-05-10T00:51:12;1.57;;;1.10;;
10967;SDS011;5536;49.602;10.980;2023-05-10T00:53:40;1.53;;;1.17;;
10967;SDS011;5536;49.602;10.980;2023-05-10T00:56:07;1.20;;;1.10;;
10967;SDS011;5536;49.602;10.980;2023-05-10T00:58:35;0.77;;;0.77;;
10967;SDS011;5536;49.602;10.980;2023-05-10T01:01:03;1.93;;;1.20;;
10967;SDS011;5536;49.602;10.980;2023-05-10T01:03:31;1.30;;;1.20;;
10967;SDS011;5536;49.602;10.980;2023-05-10T01:05:58;1.50;;;1.40;;
10967;SDS011;5536;49.602;10.980;2023-05-10T01:08:26;1.60;;;1.50;;
10967;SDS011;5536;49.602;10.980;2023-05-10T01:10:54;2.17;;;1.33;;
10967;SDS011;5536;49.602;10.980;2023-05-10T01:13:25;0.80;;;0.80;;
10967;SDS011;5536;49.602;10.980;2023-05-10T01:15:59;1.40;;;1.30;;
10967;SDS011;5536;49.602;10.980;2023-05-10T01:18:27;1.73;;;1.33;;
10967;SDS011;5536;49.602;10.980;2023-05-10T01:20:57;0.80;;;0.80;;
10967;SDS011;5536;49.602;10.980;2023-05-10T01:23:34;1.07;;;1.07;;
10967;SDS011;5536;49.602;10.980;2023-05-10T01:26:24;0.90;;;0.90;;
10967;SDS011;5536;49.602;10.980;2023-05-10T01:29:19;0.73;;;0.73;;
10967;SDS011;5536;49.602;10.980;2023-05-10T01:32:17;0.90;;;0.90;;
10967;SDS011;5536;49.602;10.980;2023-05-10T01:34:53;1.27;;;1.17;;
10967;SDS011;5536;49.602;10.980;2023-05-10T01:37:28;1.57;;;1.27;;
10967;SDS011;5536;49.602;10.980;2023-05-10T01:40:03;1.00;;;1.00;;
10967;SDS011;5536;49.602;10.980;2023-05-10T01:42:40;1.20;;;1.10;;
10967;SDS011;5536;49.602;10.980;2023-05-10T01:45:14;0.97;;;0.97;;
10967;SDS011;5536;49.602;10.980;2023-05-10T01:47:50;0.97;;;0.97;;
10967;SDS011;5536;49.602;10.980;2023-05-10T01:50:24;1.43;;;1.00;;
10967;SDS011;5536;49.602;10.980;2023-05-10T01:52:56;1.27;;;1.17;;
10967;SDS011;5536;49.602;10.980;2023-05-10T01:55:26;0.97;;;0.97;;
10967;SDS011;5536;49.602;10.980;2023-05-10T01:58:07;1.40;;;1.23;;
10967;SDS011;5536;49.602;10.980;2023-05-10T02:00:36;0.97;;;0.97;;
10967;SDS011;5536;49.602;10.980;2023-05-10T02:03:07;1.43;;;1.33;;
10967;SDS011;5536;49.602;10.980;2023-05-10T02:05:35;1.70;;;1.13;;
10967;SDS011;5536;49.602;10.980;2023-05-10T02:08:05;0.70;;;0.70;;
10967;SDS011;5536;49.602;10.980;2023-05-10T02:10:33;2.70;;;1.40;;
10967;SDS011;5536;49.602;10.980;2023-05-10T02:13:02;1.60;;;1.50;;
10967;SDS011;5536;49.602;10.980;2023-05-10T02:15:29;0.97;;;0.90;;
10967;SDS011;5536;49.602;10.980;2023-05-10T02:17:57;1.27;;;1.00;;
10967;SDS011;5536;49.602;10.980;2023-05-10T02:20:28;3.07;;;1.10;;
10967;SDS011;5536;49.602;10.980;2023-05-10T02:22:57;1.37;;;1.27;;
10967;SDS011;5536;49.602;10.980;2023-05-10T02:25:25;1.00;;;1.00;;
10967;SDS011;5536;49.602;10.980;2023-05-10T02:27:55;1.87;;;1.60;;
10967;SDS011;5536;49.602;10.980;2023-05-10T02:30:24;2.17;;;1.10;;
10967;SDS011;5536;49.602;10.980;2023-05-10T02:32:51;1.07;;;1.07;;
10967;SDS011;5536;49.602;10.980;2023-05-10T02:35:19;1.17;;;0.77;;
10967;SDS011;5536;49.602;10.980;2023-05-10T02:37:48;1.07;;;1.07;;
10967;SDS011;5536;49.602;10.980;2023-05-10T02:40:16;1.27;;;1.27;;
10967;SDS011;5536;49.602;10.980;2023-05-10T02:42:43;1.70;;;1.33;;
10967;SDS011;5536;49.602;10.980;2023-05-10T02:45:13;1.17;;;1.07;;
10967;SDS011;5536;49.602;10.980;2023-05-10T02:47:43;4.13;;;1.30;;
10967;SDS011;5536;49.602;10.980;2023-05-10T02:50:10;1.33;;;1.23;;
10967;SDS011;5536;49.602;10.980;2023-05-10T02:52:39;1.00;;;1.00;;
10967;SDS011;5536;49.602;10.980;2023-05-10T02:55:14;0.83;;;0.83;;
10967;SDS011;5536;49.602;10.980;2023-05-10T02:57:56;1.07;;;1.07;;
10967;SDS011;5536;49.602;10.980;2023-05-10T03:00:25;1.20;;;0.47;;
10967;SDS011;5536;49.602;10.980;2023-05-10T03:02:52;0.67;;;0.63;;
10967;SDS011;5536;49.602;10.980;2023-05-10T03:05:19;0.20;;;0.20;;
10967;SDS011;5536;49.602;10.980;2023-05-10T03:07:47;0.30;;;0.30;;
10967;SDS011;5536;49.602;10.980;2023-05-10T03:10:15;0.30;;;0.30;;
10967;SDS011;5536;49.602;10.980;2023-05-10T03:12:47;0.20;;;0.20;;
10967;SDS011;5536;49.602;10.980;2023-05-10T03:15:28;0.40;;;0.40;;
10967;SDS011;5536;49.602;10.980;2023-05-10T03:18:04;0.33;;;0.20;;
10967;SDS011;5536;49.602;10.980;2023-05-10T03:20:35;0.20;;;0.20;;
10967;SDS011;5536;49.602;10.980;2023-05-10T03:23:04;0.23;;;0.23;;
10967;SDS011;5536;49.602;10.980;2023-05-10T03:25:38;0.20;;;0.20;;
10967;SDS011;5536;49.602;10.980;2023-05-10T03:28:08;0.20;;;0.20;;
10967;SDS011;5536;49.602;10.980;2023-05-10T03:30:36;0.27;;;0.27;;
10967;SDS011;5536;49.602;10.980;2023-05-10T03:33:05;0.30;;;0.30;;
10967;SDS011;5536;49.602;10.980;2023-05-10T03:35:32;0.20;;;0.20;;
10967;SDS011;5536;49.602;10.980;2023-05-10T03:38:00;0.23;;;0.23;;
10967;SDS011;5536;49.602;10.980;2023-05-10T03:40:27;0.10;;;0.10;;
10967;SDS011;5536;49.602;10.980;2023-05-10T03:42:58;0.43;;;0.43;;
10967;SDS011;5536;49.602;10.980;2023-05-10T03:45:25;0.10;;;0.10;;
10967;SDS011;5536;49.602;10.980;2023-05-10T03:47:52;0.60;;;0.53;;
10967;SDS011;5536;49.602;10.980;2023-05-10T03:50:19;0.40;;;0.40;;
10967;SDS011;5536;49.602;10.980;2023-05-10T03:52:46;0.13;;;0.13;;
10967;SDS011;5536;49.602;10.980;2023-05-10T03:55:13;0.10;;;0.10;;
10967;SDS011;5536;49.602;10.980;2023-05-10T03:57:40;0.33;;;0.33;;
10967;SDS011;5536;49.602;10.980;2023-05-10T04:00:09;0.50;;;0.43;;
10967;SDS011;5536;49.602;10.980;2023-05-10T04:02:36;0.30;;;0.30;;
10967;SDS011;5536;49.602;10.980;2023-05-10T04:05:03;0.23;;;0.23;;
10967;SDS011;5536;49.602;10.980;2023-05-10T04:07:31;0.47;;;0.47;;
10967;SDS011;5536;49.602;10.980;2023-05-10T04:09:58;0.30;;;0.30;;
10967;SDS011;5536;49.602;10.980;2023-05-10T04:12:25;0.10;;;0.10;;
10967;SDS011;5536;49.602;10.980;2023-05-10T04:14:52;0.57;;;0.27;;
10967;SDS011;5536;49.602;10.980;2023-05-10T04:17:20;0.20;;;0.20;;
10967;SDS011;5536;49.602;10.980;2023-05-10T04:19:47;0.40;;;0.40;;
10967;SDS011;5536;49.602;10.980;2023-05-10T04:22:14;0.30;;;0.30;;
10967;SDS011;5536;49.602;10.980;2023-05-10T04:24:41;0.20;;;0.20;;
10967;SDS011;5536;49.602;10.980;2023-05-10T04:27:07;0.30;;;0.30;;
10967;SDS011;5536;49.602;10.980;2023-05-10T04:29:34;0.30;;;0.30;;
10967;SDS011;5536;49.602;10.980;2023-05-10T04:32:01;0.20;;;0.20;;
10967;SDS011;5536;49.602;10.980;2023-05-10T04:34:30;0.30;;;0.30;;
10967;SDS011;5536;49.602;10.980;2023-05-10T04:36:59;0.30;;;0.30;;
10967;SDS011;5536;49.602;10.980;2023-05-10T04:39:26;0.23;;;0.23;;
10967;SDS011;5536;49.602;10.980;2023-05-10T04:41:52;0.10;;;0.10;;
10967;SDS011;5536;49.602;10.980;2023-05-10T04:44:19;0.60;;;0.30;;
10967;SDS011;5536;49.602;10.980;2023-05-10T04:46:46;0.40;;;0.40;;
10967;SDS011;5536;49.602;10.980;2023-05-10T04:49:13;0.23;;;0.23;;
10967;SDS011;5536;49.602;10.980;2023-05-10T04:51:41;0.23;;;0.23;;
10967;SDS011;5536;49.602;10.980;2023-05-10T04:54:08;0.33;;;0.33;;
10967;SDS011;5536;49.602;10.980;2023-05-10T04:56:35;0.30;;;0.30;;
10967;SDS011;5536;49.602;10.980;2023-05-10T04:59:02;0.30;;;0.30;;
10967;SDS011;5536;49.602;10.980;2023-05-10T05:01:29;0.47;;;0.47;;
10967;SDS011;5536;49.602;10.980;2023-05-10T05:03:56;0.33;;;0.33;;
10967;SDS011;5536;49.602;10.980;2023-05-10T05:06:23;0.23;;;0.23;;
10967;SDS011;5536;49.602;10.980;2023-05-10T05:08:53;0.20;;;0.20;;
10967;SDS011;5536;49.602;10.980;2023-05-10T05:11:20;0.20;;;0.20;;
10967;SDS011;5536;49.602;10.980;2023-05-10T05:13:47;0.20;;;0.20;;
10967;SDS011;5536;49.602;10.980;2023-05-10T05:16:14;0.40;;;0.40;;
10967;SDS011;5536;49.602;10.980;2023-05-10T05:18:41;0.20;;;0.20;;
10967;SDS011;5536;49.602;10.980;2023-05-10T05:21:13;0.13;;;0.13;;
10967;SDS011;5536;49.602;10.980;2023-05-10T05:23:41;0.10;;;0.10;;
10967;SDS011;5536;49.602;10.980;2023-05-10T05:26:09;0.40;;;0.40;;
10967;SDS011;5536;49.602;10.980;2023-05-10T05:28:36;0.30;;;0.30;;
10967;SDS011;5536;49.602;10.980;2023-05-10T05:31:04;0.30;;;0.30;;
10967;SDS011;5536;49.602;10.980;2023-05-10T05:33:31;0.20;;;0.20;;
10967;SDS011;5536;49.602;10.980;2023-05-10T05:35:59;0.20;;;0.20;;
10967;SDS011;5536;49.602;10.980;2023-05-10T05:38:27;0.33;;;0.30;;
10967;SDS011;5536;49.602;10.980;2023-05-10T05:40:54;0.20;;;0.20;;
10967;SDS011;5536;49.602;10.980;2023-05-10T05:43:22;0.47;;;0.47;;
10967;SDS011;5536;49.602;10.980;2023-05-10T05:45:49;0.20;;;0.20;;
10967;SDS011;5536;49.602;10.980;2023-05-10T05:48:18;0.33;;;0.33;;
10967;SDS011;5536;49.602;10.980;2023-05-10T05:50:45;0.30;;;0.30;;
10967;SDS011;5536;49.602;10.980;2023-05-10T05:53:12;0.30;;;0.30;;
10967;SDS011;5536;49.602;10.980;2023-05-10T05:55:39;0.20;;;0.20;;
10967;SDS011;5536;49.602;10.980;2023-05-10T05:58:06;0.27;;;0.27;;
10967;SDS011;5536;49.602;10.980;2023-05-10T06:00:34;0.10;;;0.10;;
10967;SDS011;5536;49.602;10.980;2023-05-10T06:03:01;0.30;;;0.30;;
10967;SDS011;5536;49.602;10.980;2023-05-10T06:05:28;0.10;;;0.10;;
10967;SDS011;5536;49.602;10.980;2023-05-10T06:07:55;0.10;;;0.10;;
10967;SDS011;5536;49.602;10.980;2023-05-10T06:10:22;0.10;;;0.10;;
10967;SDS011;5536;49.602;10.980;2023-05-10T06:12:50;0.33;;;0.33;;
10967;SDS011;5536;49.602;10.980;2023-05-10T06:15:17;0.47;;;0.33;;
10967;SDS011;5536;49.602;10.980;2023-05-10T06:17:46;0.20;;;0.20;;
10967;SDS011;5536;49.602;10.980;2023-05-10T06:20:14;0.23;;;0.23;;
10967;SDS011;5536;49.602;10.980;2023-05-10T06:22:41;0.50;;;0.50;;
10967;SDS011;5536;49.602;10.980;2023-05-10T06:25:09;0.17;;;0.17;;
10967;SDS011;5536;49.602;10.980;2023-05-10T06:27:36;0.37;;;0.37;;
10967;SDS011;5536;49.602;10.980;2023-05-10T06:30:03;0.57;;;0.57;;
10967;SDS011;5536;49.602;10.980;2023-05-10T06:32:31;0.27;;;0.27;;
10967;SDS011;5536;49.602;10.980;2023-05-10T06:34:59;0.40;;;0.40;;
10967;SDS011;5536;49.602;10.980;2023-05-10T06:37:26;0.20;;;0.20;;
10967;SDS011;5536;49.602;10.980;2023-05-10T06:39:53;0.30;;;0.30;;
10967;SDS011;5536;49.602;10.980;2023-05-10T06:42:20;0.30;;;0.30;;
10967;SDS011;5536;49.602;10.980;2023-05-10T06:44:48;0.20;;;0.20;;
10967;SDS011;5536;49.602;10.980;2023-05-10T06:47:15;0.20;;;0.20;;
10967;SDS011;5536;49.602;10.980;2023-05-10T06:49:42;0.20;;;0.20;;
10967;SDS011;5536;49.602;10.980;2023-05-10T06:52:10;0.40;;;0.40;;
10967;SDS011;5536;49.602;10.980;2023-05-10T06:54:37;0.30;;;0.30;;
10967;SDS011;5536;49.602;10.980;2023-05-10T06:57:04;0.20;;;0.20;;
10967;SDS011;5536;49.602;10.980;2023-05-10T06:59:31;0.67;;;0.67;;
10967;SDS011;5536;49.602;10.980;2023-05-10T07:01:58;0.40;;;0.40;;
10967;SDS011;5536;49.602;10.980;2023-05-10T07:04:25;0.30;;;0.30;;
10967;SDS011;5536;49.602;10.980;2023-05-10T07:06:52;0.30;;;0.30;;
10967;SDS011;5536;49.602;10.980;2023-05-10T07:09:20;0.10;;;0.10;;
10967;SDS011;5536;49.602;10.980;2023-05-10T07:11:49;0.13;;;0.13;;
10967;SDS011;5536;49.602;10.980;2023-05-10T07:14:16;0.20;;;0.20;;
10967;SDS011;5536;49.602;10.980;2023-05-10T07:16:43;0.30;;;0.30;;
10967;SDS011;5536;49.602;10.980;2023-05-10T07:19:10;0.13;;;0.13;;
10967;SDS011;5536;49.602;10.980;2023-05-10T07:21:37;0.10;;;0.10;;
10967;SDS011;5536;49.602;10.980;2023-05-10T07:24:05;0.10;;;0.10;;
10967;SDS011;5536;49.602;10.980;2023-05-10T07:26:33;0.13;;;0.13;;
10967;SDS011;5536;49.602;10.980;2023-05-10T07:29:00;0.20;;;0.20;;
10967;SDS011;5536;49.602;10.980;2023-05-10T07:31:27;0.23;;;0.23;;
10967;SDS011;5536;49.602;10.980;2023-05-10T07:33:54;0.20;;;0.20;;
10967;SDS011;5536;49.602;10.980;2023-05-10T07:36:21;0.20;;;0.20;;
10967;SDS011;5536;49.602;10.980;2023-05-10T07:38:48;0.17;;;0.17;;
10967;SDS011;5536;49.602;10.980;2023-05-10T07:41:15;0.47;;;0.47;;
10967;SDS011;5536;49.602;10.980;2023-05-10T07:43:44;0.10;;;0.10;;
10967;SDS011;5536;49.602;10.980;2023-05-10T07:46:11;0.27;;;0.27;;
10967;SDS011;5536;49.602;10.980;2023-05-10T07:48:37;0.20;;;0.20;;
10967;SDS011;5536;49.602;10.980;2023-05-10T07:51:07;0.23;;;0.20;;
10967;SDS011;5536;49.602;10.980;2023-05-10T07:53:34;0.23;;;0.23;;
10967;SDS011;5536;49.602;10.980;2023-05-10T07:58:48;0.20;;;0.20;;
10967;SDS011;5536;49.602;10.980;2023-05-10T08:01:15;0.10;;;0.10;;
10967;SDS011;5536;49.602;10.980;2023-05-10T08:03:42;0.10;;;0.10;;
10967;SDS011;5536;49.602;10.980;2023-05-10T08:06:08;0.40;;;0.40;;
10967;SDS011;5536;49.602;10.980;2023-05-10T08:08:36;0.30;;;0.30;;
10967;SDS011;5536;49.602;10.980;2023-05-10T08:11:03;0.40;;;0.40;;
10967;SDS011;5536;49.602;10.980;2023-05-10T08:13:30;0.63;;;0.30;;
10967;SDS011;5536;49.602;10.980;2023-05-10T08:15:58;0.40;;;0.40;;
10967;SDS011;5536;49.602;10.980;2023-05-10T08:18:25;0.20;;;0.20;;
10967;SDS011;5536;49.602;10.980;2023-05-10T08:20:52;0.43;;;0.43;;
10967;SDS011;5536;49.602;10.980;2023-05-10T08:23:19;0.30;;;0.30;;
10967;SDS011;5536;49.602;10.980;2023-05-10T08:25:46;0.20;;;0.20;;
10967;SDS011;5536;49.602;10.980;2023-05-10T08:28:13;0.40;;;0.40;;
10967;SDS011;5536;49.602;10.980;2023-05-10T08:30:40;0.20;;;0.20;;
10967;SDS011;5536;49.602;10.980;2023-05-10T08:33:08;0.30;;;0.30;;
10967;SDS011;5536;49.602;10.980;2023-05-10T08:35:35;0.33;;;0.33;;
10967;SDS011;5536;49.602;10.980;2023-05-10T08:38:02;0.40;;;0.40;;
10967;SDS011;5536;49.602;10.980;2023-05-10T08:40:29;0.20;;;0.20;;
10967;SDS011;5536;49.602;10.980;2023-05-10T08:42:58;0.30;;;0.30;;
10967;SDS011;5536;49.602;10.980;2023-05-10T08:45:32;0.33;;;0.33;;
10967;SDS011;5536;49.602;10.980;2023-05-10T08:48:03;0.20;;;0.20;;
10967;SDS011;5536;49.602;10.980;2023-05-10T08:50:33;0.30;;;0.30;;
10967;SDS011;5536;49.602;10.980;2023-05-10T08:53:03;0.73;;;0.53;;
10967;SDS011;5536;49.602;10.980;2023-05-10T08:55:32;0.40;;;0.40;;
10967;SDS011;5536;49.602;10.980;2023-05-10T08:57:59;0.30;;;0.30;;
10967;SDS011;5536;49.602;10.980;2023-05-10T09:00:26;0.30;;;0.30;;
10967;SDS011;5536;49.602;10.980;2023-05-10T09:02:54;0.20;;;0.20;;
10967;SDS011;5536;49.602;10.980;2023-05-10T09:05:22;0.30;;;0.30;;
10967;SDS011;5536;49.602;10.980;2023-05-10T09:07:50;0.40;;;0.40;;
10967;SDS011;5536;49.602;10.980;2023-05-10T09:10:18;0.30;;;0.30;;
10967;SDS011;5536;49.602;10.980;2023-05-10T09:12:45;0.20;;;0.20;;
10967;SDS011;5536;49.602;10.980;2023-05-10T09:15:13;0.50;;;0.50;;
10967;SDS011;5536;49.602;10.980;2023-05-10T09:17:41;0.20;;;0.20;;
10967;SDS011;5536;49.602;10.980;2023-05-10T09:20:10;0.17;;;0.17;;
10967;SDS011;5536;49.602;10.980;2023-05-10T09:22:37;1.00;;;0.20;;
10967;SDS011;5536;49.602;10.980;2023-05-10T09:25:06;0.47;;;0.47;;
10967;SDS011;5536;49.602;10.980;2023-05-10T09:27:43;0.30;;;0.30;;
10967;SDS011;5536;49.602;10.980;2023-05-10T09:30:15;0.17;;;0.17;;
10967;SDS011;5536;49.602;10.980;2023-05-10T09:32:43;0.10;;;0.10;;
10967;SDS011;5536;49.602;10.980;2023-05-10T09:35:11;0.40;;;0.40;;
10967;SDS011;5536;49.602;10.980;2023-05-10T09:37:39;0.10;;;0.10;;
10967;SDS011;5536;49.602;10.980;2023-05-10T09:40:11;0.27;;;0.27;;
10967;SDS011;5536;49.602;10.980;2023-05-10T09:42:39;0.30;;;0.30;;
10967;SDS011;5536;49.602;10.980;2023-05-10T09:45:08;0.30;;;0.30;;
10967;SDS011;5536;49.602;10.980;2023-05-10T09:47:35;0.30;;;0.30;;
10967;SDS011;5536;49.602;10.980;2023-05-10T09:50:03;0.17;;;0.17;;
10967;SDS011;5536;49.602;10.980;2023-05-10T09:52:31;0.20;;;0.20;;
10967;SDS011;5536;49.602;10.980;2023-05-10T09:55:14;0.30;;;0.30;;
10967;SDS011;5536;49.602;10.980;2023-05-10T09:57:41;0.20;;;0.20;;
10967;SDS011;5536;49.602;10.980;2023-05-10T10:00:09;0.20;;;0.20;;
10967;SDS011;5536;49.602;10.980;2023-05-10T10:02:37;0.20;;;0.20;;
10967;SDS011;5536;49.602;10.980;2023-05-10T10:05:06;0.53;;;0.50;;
10967;SDS011;5536;49.602;10.980;2023-05-10T10:07:33;0.30;;;0.30;;
10967;SDS011;5536;49.602;10.980;2023-05-10T10:10:01;0.10;;;0.10;;
10967;SDS011;5536;49.602;10.980;2023-05-10T10:12:31;0.30;;;0.30;;
10967;SDS011;5536;49.602;10.980;2023-05-10T10:14:59;0.10;;;0.10;;
10967;SDS011;5536;49.602;10.980;2023-05-10T10:17:26;0.30;;;0.30;;
10967;SDS011;5536;49.602;10.980;2023-05-10T10:19:54;0.30;;;0.30;;
10967;SDS011;5536;49.602;10.980;2023-05-10T10:22:23;0.30;;;0.30;;
10967;SDS011;5536;49.602;10.980;2023-05-10T10:24:50;0.40;;;0.20;;
10967;SDS011;5536;49.602;10.980;2023-05-10T10:27:19;0.20;;;0.20;;
10967;SDS011;5536;49.602;10.980;2023-05-10T10:29:59;0.10;;;0.10;;
10967;SDS011;5536;49.602;10.980;2023-05-10T10:32:35;0.20;;;0.20;;
10967;SDS011;5536;49.602;10.980;2023-05-10T10:35:12;0.30;;;0.30;;
10967;SDS011;5536;49.602;10.980;2023-05-10T10:37:41;0.20;;;0.20;;
10967;SDS011;5536;49.602;10.980;2023-05-10T10:40:23;0.13;;;0.13;;
10967;SDS011;5536;49.602;10.980;2023-05-10T10:42:52;0.30;;;0.30;;
10967;SDS011;5536;49.602;10.980;2023-05-10T10:45:22;0.23;;;0.23;;
10967;SDS011;5536;49.602;10.980;2023-05-10T10:47:53;0.40;;;0.27;;
10967;SDS011;5536;49.602;10.980;2023-05-10T10:50:42;0.30;;;0.30;;
10967;SDS011;5536;49.602;10.980;2023-05-10T10:53:10;1.05;;;0.40;;
10967;SDS011;5536;49.602;10.980;2023-05-10T10:55:44;0.20;;;0.20;;
10967;SDS011;5536;49.602;10.980;2023-05-10T10:58:12;0.20;;;0.20;;
10967;SDS011;5536;49.602;10.980;2023-05-10T11:01:09;0.43;;;0.43;;
10967;SDS011;5536;49.602;10.980;2023-05-10T11:03:38;0.53;;;0.30;;
10967;SDS011;5536;49.602;10.980;2023-05-10T11:06:05;0.40;;;0.40;;
10967;SDS011;5536;49.602;10.980;2023-05-10T11:08:33;0.15;;;0.15;;
10967;SDS011;5536;49.602;10.980;2023-05-10T11:11:07;0.20;;;0.20;;
10967;SDS011;5536;49.602;10.980;2023-05-10T11:13:37;0.40;;;0.40;;
10967;SDS011;5536;49.602;10.980;2023-05-10T11:16:13;0.50;;;0.50;;
10967;SDS011;5536;49.602;10.980;2023-05-10T11:18:51;0.25;;;0.25;;
10967;SDS011;5536;49.602;10.980;2023-05-10T11:21:27;0.40;;;0.40;;
10967;SDS011;5536;49.602;10.980;2023-05-10T11:23:54;0.50;;;0.50;;
10967;SDS011;5536;49.602;10.980;2023-05-10T11:26:22;0.50;;;0.50;;
10967;SDS011;5536;49.602;10.980;2023-05-10T11:28:51;0.60;;;0.60;;
10967;SDS011;5536;49.602;10.980;2023-05-10T11:31:22;0.20;;;0.20;;
10967;SDS011;5536;49.602;10.980;2023-05-10T11:33:52;0.37;;;0.37;;
10967;SDS011;5536;49.602;10.980;2023-05-10T11:36:21;0.40;;;0.40;;
10967;SDS011;5536;49.602;10.980;2023-05-10T11:38:50;1.67;;;0.60;;
10967;SDS011;5536;49.602;10.980;2023-05-10T11:41:18;1.00;;;1.00;;
10967;SDS011;5536;49.602;10.980;2023-05-10T11:43:46;0.50;;;0.50;;
10967;SDS011;5536;49.602;10.980;2023-05-10T11:46:17;0.20;;;0.20;;
10967;SDS011;5536;49.602;10.980;2023-05-10T11:48:47;0.30;;;0.30;;
10967;SDS011;5536;49.602;10.980;2023-05-10T11:51:20;0.10;;;0.10;;
10967;SDS011;5536;49.602;10.980;2023-05-10T11:53:48;0.55;;;0.40;;
10967;SDS011;5536;49.602;10.980;2023-05-10T11:56:16;0.28;;;0.28;;
10967;SDS011;5536;49.602;10.980;2023-05-10T11:58:43;0.73;;;0.68;;
10967;SDS011;5536;49.602;10.980;2023-05-10T12:01:12;0.25;;;0.25;;
10967;SDS011;5536;49.602;10.980;2023-05-10T12:03:39;3.70;;;0.50;;
10967;SDS011;5536;49.602;10.980;2023-05-10T12:06:08;0.30;;;0.30;;
10967;SDS011;5536;49.602;10.980;2023-05-10T12:08:35;0.30;;;0.30;;
10967;SDS011;5536;49.602;10.980;2023-05-10T12:11:05;0.32;;;0.32;;
10967;SDS011;5536;49.602;10.980;2023-05-10T12:13:37;0.40;;;0.40;;
10967;SDS011;5536;49.602;10.980;2023-05-10T12:16:12;0.73;;;0.73;;
10967;SDS011;5536;49.602;10.980;2023-05-10T12:18:40;0.40;;;0.40;;
10967;SDS011;5536;49.602;10.980;2023-05-10T12:21:10;0.50;;;0.50;;
10967;SDS011;5536;49.602;10.980;2023-05-10T12:23:39;0.30;;;0.30;;
10967;SDS011;5536;49.602;10.980;2023-05-10T12:26:06;0.30;;;0.30;;
10967;SDS011;5536;49.602;10.980;2023-05-10T12:28:35;3.55;;;0.60;;
10967;SDS011;5536;49.602;10.980;2023-05-10T12:31:03;0.30;;;0.30;;
10967;SDS011;5536;49.602;10.980;2023-05-10T12:33:37;0.22;;;0.22;;
10967;SDS011;5536;49.602;10.980;2023-05-10T12:36:06;0.47;;;0.47;;
10967;SDS011;5536;49.602;10.980;2023-05-10T12:38:36;0.25;;;0.25;;
10967;SDS011;5536;49.602;10.980;2023-05-10T12:41:04;0.30;;;0.30;;
10967;SDS011;5536;49.602;10.980;2023-05-10T12:43:32;0.40;;;0.40;;
10967;SDS011;5536;49.602;10.980;2023-05-10T12:46:04;0.60;;;0.60;;
10967;SDS011;5536;49.602;10.980;2023-05-10T12:48:31;0.22;;;0.22;;
10967;SDS011;5536;49.602;10.980;2023-05-10T12:50:59;0.20;;;0.20;;
10967;SDS011;5536;49.602;10.980;2023-05-10T12:53:26;0.20;;;0.20;;
10967;SDS011;5536;49.602;10.980;2023-05-10T12:55:54;0.30;;;0.30;;
10967;SDS011;5536;49.602;10.980;2023-05-10T12:58:21;0.30;;;0.30;;
10967;SDS011;5536;49.602;10.980;2023-05-10T13:00:48;0.45;;;0.45;;
10967;SDS011;5536;49.602;10.980;2023-05-10T13:03:16;0.30;;;0.30;;
10967;SDS011;5536;49.602;10.980;2023-05-10T13:05:43;0.38;;;0.38;;
10967;SDS011;5536;49.602;10.980;2023-05-10T13:08:10;0.30;;;0.30;;
10967;SDS011;5536;49.602;10.980;2023-05-10T13:10:37;0.50;;;0.37;;
10967;SDS011;5536;49.602;10.980;2023-05-10T13:13:05;0.20;;;0.20;;
10967;SDS011;5536;49.602;10.980;2023-05-10T13:15:33;0.10;;;0.10;;
10967;SDS011;5536;49.602;10.980;2023-05-10T13:18:00;0.30;;;0.30;;
10967;SDS011;5536;49.602;10.980;2023-05-10T13:20:27;0.47;;;0.40;;
10967;SDS011;5536;49.602;10.980;2023-05-10T13:22:54;0.50;;;0.50;;
10967;SDS011;5536;49.602;10.980;2023-05-10T13:25:21;0.30;;;0.30;;
10967;SDS011;5536;49.602;10.980;2023-05-10T13:27:48;0.30;;;0.30;;
10967;SDS011;5536;49.602;10.980;2023-05-10T13:30:16;0.47;;;0.47;;
10967;SDS011;5536;49.602;10.980;2023-05-10T13:32:43;1.23;;;0.40;;
10967;SDS011;5536;49.602;10.980;2023-05-10T13:35:10;0.30;;;0.30;;
10967;SDS011;5536;49.602;10.980;2023-05-10T13:37:37;0.27;;;0.27;;
10967;SDS011;5536;49.602;10.980;2023-05-10T13:40:05;0.40;;;0.40;;
10967;SDS011;5536;49.602;10.980;2023-05-10T13:42:32;0.37;;;0.37;;
10967;SDS011;5536;49.602;10.980;2023-05-10T13:44:59;0.27;;;0.27;;
10967;SDS011;5536;49.602;10.980;2023-05-10T13:47:28;0.20;;;0.20;;
10967;SDS011;5536;49.602;10.980;2023-05-10T13:49:55;0.23;;;0.23;;
10967;SDS011;5536;49.602;10.980;2023-05-10T13:52:22;0.30;;;0.30;;
10967;SDS011;5536;49.602;10.980;2023-05-10T13:54:49;0.40;;;0.40;;
10967;SDS011;5536;49.602;10.980;2023-05-10T13:57:19;0.30;;;0.30;;
10967;SDS011;5536;49.602;10.980;2023-05-10T13:59:46;0.20;;;0.20;;
10967;SDS011;5536;49.602;10.980;2023-05-10T14:02:14;0.43;;;0.43;;
10967;SDS011;5536;49.602;10.980;2023-05-10T14:04:42;0.33;;;0.33;;
10967;SDS011;5536;49.602;10.980;2023-05-10T14:07:09;0.37;;;0.37;;
10967;SDS011;5536;49.602;10.980;2023-05-10T14:09:36;0.20;;;0.20;;
10967;SDS011;5536;49.602;10.980;2023-05-10T14:12:03;0.83;;;0.83;;
10967;SDS011;5536;49.602;10.980;2023-05-10T14:14:30;0.40;;;0.40;;
10967;SDS011;5536;49.602;10.980;2023-05-10T14:16:57;0.63;;;0.63;;
10967;SDS011;5536;49.602;10.980;2023-05-10T14:19:24;1.87;;;0.83;;
10967;SDS011;5536;49.602;10.980;2023-05-10T14:21:53;0.40;;;0.37;;
10967;SDS011;5536;49.602;10.980;2023-05-10T14:24:20;0.30;;;0.30;;
10967;SDS011;5536;49.602;10.980;2023-05-10T14:26:47;0.40;;;0.30;;
10967;SDS011;5536;49.602;10.980;2023-05-10T14:29:14;0.30;;;0.30;;
10967;SDS011;5536;49.602;10.980;2023-05-10T14:31:41;0.60;;;0.53;;
10967;SDS011;5536;49.602;10.980;2023-05-10T14:34:07;0.30;;;0.30;;
10967;SDS011;5536;49.602;10.980;2023-05-10T14:36:34;0.50;;;0.50;;
10967;SDS011;5536;49.602;10.980;2023-05-10T14:39:03;0.30;;;0.30;;
10967;SDS011;5536;49.602;10.980;2023-05-10T14:41:30;0.30;;;0.30;;
10967;SDS011;5536;49.602;10.980;2023-05-10T14:43:57;0.43;;;0.43;;
10967;SDS011;5536;49.602;10.980;2023-05-10T14:46:24;0.83;;;0.83;;
10967;SDS011;5536;49.602;10.980;2023-05-10T14:48:51;0.57;;;0.50;;
10967;SDS011;5536;49.602;10.980;2023-05-10T14:51:18;0.30;;;0.30;;
10967;SDS011;5536;49.602;10.980;2023-05-10T14:53:46;0.43;;;0.43;;
10967;SDS011;5536;49.602;10.980;2023-05-10T14:56:15;0.20;;;0.20;;
10967;SDS011;5536;49.602;10.980;2023-05-10T14:58:42;0.17;;;0.17;;
10967;SDS011;5536;49.602;10.980;2023-05-10T15:01:09;0.63;;;0.63;;